Airfield :
LOGIN :

Register | Disclaimer

   EN    FR    IT 

 










Legend :    VFR   Marginal VFR   IFR   Intensive IFR   Very Intensive IFR
Visi :
Ceiling :
>= 8 km
>= 3000ft
5 to 8 km
1000 to 3000 ft
1500m to 5 km
500 to 1000 ft
800 to 1500m
200 to 500 ft
< 800m
< 200 ft
Symbols :   Thunderstorms  Fog  Heavy snow  Heavy precipitations  Wind > 20 kt
SIGMETs :     Misc.  Thunderstorms  Icing  Turbulence  Mountain Waves  Volcanic Ashes







- Airport Elevation : 870 ft
- IATA code : ETZ
- Download approach charts


LFJL - Metz Nancy Lorraine

CURRENT METAR :
  • 201230Z AUTO 29015KT 9999 FEW021 BKN028 17/12 Q1008 TEMPO 31013G25KT SHRA SCT025TCU

EXPIRED METARs :
  • 201200Z AUTO 29014KT 9999 BKN022 BKN027 BKN042 17/12 Q1008 TEMPO SHRA SCT025TCU
  • 201130Z AUTO 29012KT 9999 BKN017 BKN023 16/12 Q1008 TEMPO SHRA SCT025TCU
  • 201100Z AUTO 29013KT 8000 BKN018 OVC025 16/11 Q1008 TEMPO SHRA SCT025TCU
  • 201030Z AUTO 29012KT 7000 BKN020 17/12 Q1007 TEMPO SHRA SCT025TCU
  • 201000Z AUTO 29012KT 7000 BKN020 BKN026 BKN110 17/12 Q1007 TEMPO SHRA SCT025TCU

TAF TAF LFJL
Valid from the 20 at 12:00 until the 21 at 12:00 UTC


201101Z 2012/2112 29011KT 9000 SCT018 BKN030
PROB40
TEMPO 2012/2016 31013G25KT SHRA SCT025TCU
TEMPO 2101/2109 BKN010 OVC020
No reported NOTAMs for that airfield.



MET'MAP, your aeronautical weather chart ! - Copyright ORBIFLY December 2007 - Disclaimer

ORBIFLY MET'MAP TEAM :

Programming & Development : Alexandra Zaïnal
Concept & Development : Baudouin d'Aumeries
Co-Development & Prog : Marc-Olivier Méhu
Technical & hardware support : Manuel Goepfert

Contact : metmap@orbifly.com




SOURCES & CREDITS :

   NOAA